Terminal Aerodrome Forecast
Issued by NWS Green Bay, WI

Home | Current Version | Previous Version | Graphics & Text | Print | Product List | Glossary On
Versions: 1 2 3 4 5 6 7 8 9 10 11 12 13 14 15
000
FTUS43 KGRB 301742 AAA
TAFGRB
TAF AMD
KGRB 301742Z 3018/3118 28007KT P6SM FEW060 SCT250
     FM310100 VRB03KT P6SM SCT150
     FM311200 13004KT P6SM BKN080
     FM311600 15008KT P6SM SCT080 BKN120=

USA.gov is the U.S. government's official web portal to all federal, state and local government web resources and services.